Time;durP1;ratioP1;P1;durP2;ratioP2;P2;SDS_P1;SDS_P2;PMS_P1;PMS_P2;Temp;Humidity;BMP_temperature;BMP_pressure;BME280_temperature;BME280_humidity;BME280_pressure;Samples;Min_cycle;Max_cycle;Signal;HPM_P1;HPM_P2
2022/06/11 00:00:00;;;;;;;0.2;0.2;;;;;;;19.4;100.0;101830;;;;
2022/06/11 00:01:00;;;;;;;0.2;0.2;;;;;;;19.3;100.0;101820;;;;
2022/06/11 00:02:02;;;;;;;0.2;0.2;;;;;;;19.3;100.0;101820;;;;
2022/06/11 00:03:00;;;;;;;0.2;0.2;;;;;;;19.2;100.0;101820;;;;
2022/06/11 00:04:03;;;;;;;0.2;0.2;;;;;;;19.2;100.0;101820;;;;
2022/06/11 00:05:00;;;;;;;0.2;0.2;;;;;;;19.2;100.0;101830;;;;
2022/06/11 00:06:00;;;;;;;0.2;0.2;;;;;;;19.2;100.0;101830;;;;
2022/06/11 00:07:04;;;;;;;0.2;0.2;;;;;;;19.1;100.0;101830;;;;
2022/06/11 00:08:00;;;;;;;0.2;0.2;;;;;;;19.1;100.0;101830;;;;
2022/06/11 00:09:00;;;;;;;0.2;0.2;;;;;;;19.0;100.0;101830;;;;
2022/06/11 00:10:00;;;;;;;0.2;0.2;;;;;;;19.0;100.0;101830;;;;
2022/06/11 00:11:00;;;;;;;0.2;0.2;;;;;;;19.1;100.0;101830;;;;
2022/06/11 00:12:00;;;;;;;0.2;0.2;;;;;;;19.1;100.0;101830;;;;
2022/06/11 00:13:00;;;;;;;0.2;0.2;;;;;;;19.1;100.0;101830;;;;
2022/06/11 00:14:00;;;;;;;0.2;0.2;;;;;;;19.1;100.0;101830;;;;
2022/06/11 00:15:00;;;;;;;0.2;0.2;;;;;;;19.0;100.0;101830;;;;
2022/06/11 00:16:01;;;;;;;0.2;0.2;;;;;;;19.0;100.0;101830;;;;
2022/06/11 00:17:00;;;;;;;0.2;0.2;;;;;;;18.9;100.0;101830;;;;
2022/06/11 00:18:00;;;;;;;0.2;0.2;;;;;;;18.9;100.0;101830;;;;
2022/06/11 00:19:01;;;;;;;0.2;0.2;;;;;;;18.9;100.0;101830;;;;
2022/06/11 00:20:00;;;;;;;0.2;0.2;;;;;;;18.9;100.0;101830;;;;
2022/06/11 00:21:00;;;;;;;0.2;0.2;;;;;;;18.8;100.0;101830;;;;
2022/06/11 00:22:01;;;;;;;0.2;0.2;;;;;;;18.8;100.0;101830;;;;
2022/06/11 00:23:00;;;;;;;0.2;0.2;;;;;;;18.9;100.0;101830;;;;
2022/06/11 00:24:00;;;;;;;0.6;0.6;;;;;;;18.9;100.0;101830;;;;
2022/06/11 00:25:00;;;;;;;0.6;0.6;;;;;;;18.9;100.0;101830;;;;
2022/06/11 00:26:01;;;;;;;0.6;0.6;;;;;;;18.9;100.0;101830;;;;
2022/06/11 00:27:01;;;;;;;0.6;0.6;;;;;;;18.8;100.0;101830;;;;
2022/06/11 00:28:01;;;;;;;0.6;0.6;;;;;;;18.8;100.0;101830;;;;
2022/06/11 00:29:00;;;;;;;0.6;0.6;;;;;;;18.8;100.0;101830;;;;
2022/06/11 00:30:00;;;;;;;0.6;0.6;;;;;;;18.8;100.0;101830;;;;
2022/06/11 00:31:00;;;;;;;0.6;0.6;;;;;;;18.8;100.0;101820;;;;
2022/06/11 00:32:00;;;;;;;0.6;0.6;;;;;;;18.8;100.0;101820;;;;
2022/06/11 00:33:00;;;;;;;0.6;0.6;;;;;;;18.7;100.0;101820;;;;
2022/06/11 00:34:00;;;;;;;0.6;0.6;;;;;;;18.7;100.0;101820;;;;
2022/06/11 00:35:03;;;;;;;0.6;0.6;;;;;;;18.7;100.0;101820;;;;
2022/06/11 00:36:00;;;;;;;0.6;0.6;;;;;;;18.7;100.0;101820;;;;
2022/06/11 00:37:00;;;;;;;0.6;0.6;;;;;;;18.6;100.0;101830;;;;
2022/06/11 00:38:00;;;;;;;0.6;0.6;;;;;;;18.6;100.0;101830;;;;
2022/06/11 00:39:00;;;;;;;0.6;0.6;;;;;;;18.6;100.0;101830;;;;
2022/06/11 00:40:00;;;;;;;0.6;0.6;;;;;;;18.6;100.0;101830;;;;
2022/06/11 00:41:00;;;;;;;0.6;0.6;;;;;;;18.6;100.0;101820;;;;
2022/06/11 00:42:03;;;;;;;0.6;0.6;;;;;;;18.6;100.0;101820;;;;
2022/06/11 00:43:00;;;;;;;0.6;0.6;;;;;;;18.6;100.0;101830;;;;
2022/06/11 00:44:00;;;;;;;0.3;0.3;;;;;;;18.6;100.0;101830;;;;
2022/06/11 00:45:12;;;;;;;0.3;0.3;;;;;;;18.6;100.0;101820;;;;
2022/06/11 00:46:10;;;;;;;0.3;0.3;;;;;;;18.6;100.0;101820;;;;
2022/06/11 00:47:01;;;;;;;0.3;0.3;;;;;;;18.5;100.0;101820;;;;
2022/06/11 00:48:12;;;;;;;0.3;0.3;;;;;;;18.5;100.0;101820;;;;
2022/06/11 00:49:01;;;;;;;0.3;0.3;;;;;;;18.5;100.0;101820;;;;
2022/06/11 00:50:00;;;;;;;0.3;0.3;;;;;;;18.5;100.0;101820;;;;
2022/06/11 00:51:02;;;;;;;0.3;0.3;;;;;;;18.4;100.0;101830;;;;
2022/06/11 00:52:09;;;;;;;0.3;0.3;;;;;;;18.4;100.0;101830;;;;
2022/06/11 00:53:00;;;;;;;0.3;0.3;;;;;;;18.5;100.0;101820;;;;
2022/06/11 00:54:03;;;;;;;0.3;0.3;;;;;;;18.5;100.0;101820;;;;
2022/06/11 00:55:04;;;;;;;0.3;0.3;;;;;;;18.4;100.0;101820;;;;
2022/06/11 00:56:01;;;;;;;0.3;0.3;;;;;;;18.4;100.0;101820;;;;
2022/06/11 00:57:00;;;;;;;0.3;0.3;;;;;;;18.4;100.0;101820;;;;
2022/06/11 00:58:07;;;;;;;0.3;0.3;;;;;;;18.4;100.0;101820;;;;
2022/06/11 00:59:01;;;;;;;0.3;0.3;;;;;;;18.3;100.0;101820;;;;
2022/06/11 01:00:03;;;;;;;0.3;0.3;;;;;;;18.3;100.0;101820;;;;
2022/06/11 01:01:01;;;;;;;0.3;0.3;;;;;;;18.3;100.0;101820;;;;
2022/06/11 01:02:00;;;;;;;0.3;0.3;;;;;;;18.3;100.0;101820;;;;
2022/06/11 01:03:01;;;;;;;0.3;0.3;;;;;;;18.3;100.0;101820;;;;
2022/06/11 01:04:01;;;;;;;0.3;0.3;;;;;;;18.3;100.0;101820;;;;
2022/06/11 01:05:01;;;;;;;0.3;0.3;;;;;;;18.3;100.0;101820;;;;
2022/06/11 01:06:06;;;;;;;0.3;0.3;;;;;;;18.3;100.0;101820;;;;
2022/06/11 01:07:05;;;;;;;0.3;0.3;;;;;;;18.2;100.0;101820;;;;
2022/06/11 01:08:03;;;;;;;0.3;0.3;;;;;;;18.2;100.0;101820;;;;
2022/06/11 01:09:00;;;;;;;0.3;0.3;;;;;;;18.2;100.0;101820;;;;
2022/06/11 01:10:10;;;;;;;0.3;0.3;;;;;;;18.2;100.0;101820;;;;
2022/06/11 01:11:00;;;;;;;0.3;0.3;;;;;;;18.2;100.0;101820;;;;
2022/06/11 01:12:10;;;;;;;0.3;0.3;;;;;;;18.2;100.0;101820;;;;
2022/06/11 01:13:03;;;;;;;0.3;0.3;;;;;;;18.2;100.0;101820;;;;
2022/06/11 01:14:10;;;;;;;0.3;0.3;;;;;;;18.2;100.0;101820;;;;
2022/06/11 01:15:00;;;;;;;0.3;0.3;;;;;;;18.2;100.0;101810;;;;
2022/06/11 01:16:02;;;;;;;0.3;0.3;;;;;;;18.2;100.0;101810;;;;
2022/06/11 01:17:01;;;;;;;0.3;0.3;;;;;;;18.1;100.0;101810;;;;
2022/06/11 01:18:01;;;;;;;0.3;0.3;;;;;;;18.1;100.0;101810;;;;
2022/06/11 01:19:03;;;;;;;0.3;0.3;;;;;;;18.1;100.0;101810;;;;
2022/06/11 01:20:06;;;;;;;0.3;0.3;;;;;;;18.1;100.0;101810;;;;
2022/06/11 01:21:05;;;;;;;0.3;0.3;;;;;;;18.1;100.0;101810;;;;
2022/06/11 01:22:09;;;;;;;0.3;0.3;;;;;;;18.1;100.0;101810;;;;
2022/06/11 01:23:03;;;;;;;0.3;0.3;;;;;;;18.1;100.0;101810;;;;
2022/06/11 01:24:10;;;;;;;0.4;0.4;;;;;;;18.1;100.0;101810;;;;
2022/06/11 01:25:07;;;;;;;0.4;0.4;;;;;;;18.1;100.0;101810;;;;
2022/06/11 01:26:01;;;;;;;0.4;0.4;;;;;;;18.1;100.0;101810;;;;
2022/06/11 01:27:02;;;;;;;0.4;0.4;;;;;;;17.9;100.0;101810;;;;
2022/06/11 01:28:10;;;;;;;0.4;0.4;;;;;;;17.9;100.0;101810;;;;
2022/06/11 01:29:00;;;;;;;0.4;0.4;;;;;;;17.9;100.0;101810;;;;
2022/06/11 01:30:03;;;;;;;0.4;0.4;;;;;;;17.9;100.0;101810;;;;
2022/06/11 01:31:00;;;;;;;0.4;0.4;;;;;;;17.9;100.0;101810;;;;
2022/06/11 01:32:06;;;;;;;0.4;0.4;;;;;;;17.9;100.0;101810;;;;
2022/06/11 01:33:11;;;;;;;0.4;0.4;;;;;;;17.9;100.0;101810;;;;
2022/06/11 01:34:10;;;;;;;0.4;0.4;;;;;;;17.9;100.0;101810;;;;
2022/06/11 01:35:01;;;;;;;0.4;0.4;;;;;;;17.9;100.0;101810;;;;
2022/06/11 01:36:05;;;;;;;0.4;0.4;;;;;;;17.9;100.0;101810;;;;
2022/06/11 01:37:03;;;;;;;0.4;0.4;;;;;;;17.9;100.0;101810;;;;
2022/06/11 01:38:07;;;;;;;0.4;0.4;;;;;;;17.9;100.0;101810;;;;
2022/06/11 01:39:07;;;;;;;0.4;0.4;;;;;;;17.9;100.0;101810;;;;
2022/06/11 01:40:02;;;;;;;0.4;0.4;;;;;;;17.9;100.0;101810;;;;
2022/06/11 01:41:10;;;;;;;0.4;0.4;;;;;;;17.8;100.0;101810;;;;
2022/06/11 01:42:00;;;;;;;0.4;0.4;;;;;;;17.8;100.0;101810;;;;
2022/06/11 01:43:04;;;;;;;0.4;0.4;;;;;;;17.7;100.0;101810;;;;
2022/06/11 01:44:03;;;;;;;0.6;0.6;;;;;;;17.7;100.0;101810;;;;
2022/06/11 01:45:03;;;;;;;0.6;0.6;;;;;;;17.8;100.0;101810;;;;
2022/06/11 01:46:01;;;;;;;0.6;0.6;;;;;;;17.8;100.0;101810;;;;
2022/06/11 01:47:01;;;;;;;0.6;0.6;;;;;;;17.7;100.0;101810;;;;
2022/06/11 01:48:01;;;;;;;0.6;0.6;;;;;;;17.7;100.0;101810;;;;
2022/06/11 01:49:04;;;;;;;0.6;0.6;;;;;;;17.6;100.0;101810;;;;
2022/06/11 01:50:00;;;;;;;0.6;0.6;;;;;;;17.6;100.0;101810;;;;
2022/06/11 01:51:03;;;;;;;0.6;0.6;;;;;;;17.7;100.0;101810;;;;
2022/06/11 01:52:10;;;;;;;0.6;0.6;;;;;;;17.7;100.0;101810;;;;
2022/06/11 01:53:00;;;;;;;0.6;0.6;;;;;;;17.6;100.0;101810;;;;
2022/06/11 01:54:10;;;;;;;0.6;0.6;;;;;;;17.6;100.0;101810;;;;
2022/06/11 01:55:10;;;;;;;0.6;0.6;;;;;;;17.6;100.0;101810;;;;
2022/06/11 01:56:10;;;;;;;0.6;0.6;;;;;;;17.6;100.0;101810;;;;
2022/06/11 01:57:10;;;;;;;0.6;0.6;;;;;;;17.6;100.0;101800;;;;
2022/06/11 01:58:07;;;;;;;0.6;0.6;;;;;;;17.6;100.0;101800;;;;
2022/06/11 01:59:09;;;;;;;0.6;0.6;;;;;;;17.6;100.0;101810;;;;
2022/06/11 02:00:01;;;;;;;0.6;0.6;;;;;;;17.6;100.0;101810;;;;
2022/06/11 02:01:00;;;;;;;0.6;0.6;;;;;;;17.5;100.0;101810;;;;
2022/06/11 02:02:03;;;;;;;0.6;0.6;;;;;;;17.5;100.0;101810;;;;
2022/06/11 02:03:00;;;;;;;0.6;0.6;;;;;;;17.4;100.0;101820;;;;
2022/06/11 02:04:07;;;;;;;1.1;1.0;;;;;;;17.4;100.0;101820;;;;
2022/06/11 02:05:03;;;;;;;1.1;1.0;;;;;;;17.5;100.0;101810;;;;
2022/06/11 02:06:10;;;;;;;1.1;1.0;;;;;;;17.5;100.0;101810;;;;
2022/06/11 02:07:03;;;;;;;1.1;1.0;;;;;;;17.5;100.0;101810;;;;
2022/06/11 02:08:00;;;;;;;1.1;1.0;;;;;;;17.5;100.0;101810;;;;
2022/06/11 02:09:09;;;;;;;1.1;1.0;;;;;;;17.4;100.0;101810;;;;
2022/06/11 02:10:00;;;;;;;1.1;1.0;;;;;;;17.4;100.0;101810;;;;
2022/06/11 02:11:09;;;;;;;1.1;1.0;;;;;;;17.4;100.0;101810;;;;
2022/06/11 02:12:07;;;;;;;1.1;1.0;;;;;;;17.4;100.0;101810;;;;
2022/06/11 02:13:12;;;;;;;1.1;1.0;;;;;;;17.3;100.0;101810;;;;
2022/06/11 02:14:12;;;;;;;1.1;1.0;;;;;;;17.3;100.0;101810;;;;
2022/06/11 02:15:04;;;;;;;1.1;1.0;;;;;;;17.3;100.0;101810;;;;
2022/06/11 02:16:05;;;;;;;1.1;1.0;;;;;;;17.3;100.0;101810;;;;
2022/06/11 02:17:05;;;;;;;1.1;1.0;;;;;;;17.2;100.0;101810;;;;
2022/06/11 02:18:03;;;;;;;1.1;1.0;;;;;;;17.2;100.0;101810;;;;
2022/06/11 02:19:02;;;;;;;1.1;1.0;;;;;;;17.4;100.0;101810;;;;
2022/06/11 02:20:05;;;;;;;1.1;1.0;;;;;;;17.4;100.0;101810;;;;
2022/06/11 02:21:02;;;;;;;1.1;1.0;;;;;;;17.3;100.0;101810;;;;
2022/06/11 02:22:04;;;;;;;1.1;1.0;;;;;;;17.3;100.0;101810;;;;
2022/06/11 02:23:04;;;;;;;1.1;1.0;;;;;;;17.4;100.0;101810;;;;
2022/06/11 02:24:06;;;;;;;0.3;0.3;;;;;;;17.4;100.0;101810;;;;
2022/06/11 02:25:05;;;;;;;0.3;0.3;;;;;;;17.3;100.0;101810;;;;
2022/06/11 02:26:03;;;;;;;0.3;0.3;;;;;;;17.3;100.0;101810;;;;
2022/06/11 02:27:02;;;;;;;0.3;0.3;;;;;;;17.2;100.0;101810;;;;
2022/06/11 02:28:01;;;;;;;0.3;0.3;;;;;;;17.2;100.0;101810;;;;
2022/06/11 02:29:00;;;;;;;0.3;0.3;;;;;;;17.3;100.0;101810;;;;
2022/06/11 02:30:00;;;;;;;0.3;0.3;;;;;;;17.3;100.0;101810;;;;
2022/06/11 02:31:02;;;;;;;0.3;0.3;;;;;;;17.2;100.0;101820;;;;
2022/06/11 02:32:08;;;;;;;0.3;0.3;;;;;;;17.2;100.0;101820;;;;
2022/06/11 02:33:00;;;;;;;0.3;0.3;;;;;;;17.2;100.0;101810;;;;
2022/06/11 02:34:01;;;;;;;0.3;0.3;;;;;;;17.2;100.0;101810;;;;
2022/06/11 02:35:04;;;;;;;0.3;0.3;;;;;;;17.2;100.0;101820;;;;
2022/06/11 02:36:04;;;;;;;0.3;0.3;;;;;;;17.2;100.0;101820;;;;
2022/06/11 02:37:02;;;;;;;0.3;0.3;;;;;;;17.3;100.0;101810;;;;
2022/06/11 02:38:00;;;;;;;0.3;0.3;;;;;;;17.3;100.0;101810;;;;
2022/06/11 02:39:01;;;;;;;0.3;0.3;;;;;;;17.3;100.0;101810;;;;
2022/06/11 02:40:04;;;;;;;0.3;0.3;;;;;;;17.3;100.0;101810;;;;
2022/06/11 02:41:03;;;;;;;0.3;0.3;;;;;;;17.3;100.0;101820;;;;
2022/06/11 02:42:01;;;;;;;0.3;0.3;;;;;;;17.3;100.0;101820;;;;
2022/06/11 02:43:00;;;;;;;0.3;0.3;;;;;;;17.3;100.0;101820;;;;
2022/06/11 02:44:00;;;;;;;0.5;0.5;;;;;;;17.3;100.0;101820;;;;
2022/06/11 02:45:00;;;;;;;0.5;0.5;;;;;;;17.3;100.0;101820;;;;
2022/06/11 02:46:40;;;;;;;0.5;0.5;;;;;;;17.3;100.0;101820;;;;
2022/06/11 02:47:00;;;;;;;0.5;0.5;;;;;;;17.3;100.0;101820;;;;
2022/06/11 02:48:00;;;;;;;0.5;0.5;;;;;;;17.3;100.0;101820;;;;
2022/06/11 02:49:00;;;;;;;0.5;0.5;;;;;;;17.3;100.0;101820;;;;
2022/06/11 02:50:00;;;;;;;0.5;0.5;;;;;;;17.3;100.0;101820;;;;
2022/06/11 02:51:00;;;;;;;0.5;0.5;;;;;;;17.3;100.0;101830;;;;
2022/06/11 02:52:01;;;;;;;0.5;0.5;;;;;;;17.3;100.0;101830;;;;
2022/06/11 02:53:00;;;;;;;0.5;0.5;;;;;;;17.2;100.0;101830;;;;
2022/06/11 02:54:00;;;;;;;0.5;0.5;;;;;;;17.2;100.0;101830;;;;
2022/06/11 02:55:00;;;;;;;0.5;0.5;;;;;;;17.2;100.0;101830;;;;
2022/06/11 02:56:00;;;;;;;0.5;0.5;;;;;;;17.2;100.0;101830;;;;
2022/06/11 02:57:01;;;;;;;0.5;0.5;;;;;;;17.2;100.0;101830;;;;
2022/06/11 02:58:01;;;;;;;0.5;0.5;;;;;;;17.2;100.0;101830;;;;
2022/06/11 02:59:00;;;;;;;0.5;0.5;;;;;;;17.1;100.0;101830;;;;
2022/06/11 03:00:00;;;;;;;0.5;0.5;;;;;;;17.1;100.0;101830;;;;
2022/06/11 03:01:00;;;;;;;0.5;0.5;;;;;;;17.2;100.0;101840;;;;
2022/06/11 03:02:00;;;;;;;0.5;0.5;;;;;;;17.2;100.0;101840;;;;
2022/06/11 03:03:00;;;;;;;0.5;0.5;;;;;;;17.2;100.0;101840;;;;
2022/06/11 03:04:01;;;;;;;0.5;0.5;;;;;;;17.2;100.0;101840;;;;
2022/06/11 03:05:00;;;;;;;0.5;0.5;;;;;;;17.1;100.0;101840;;;;
2022/06/11 03:06:00;;;;;;;0.5;0.5;;;;;;;17.1;100.0;101840;;;;
2022/06/11 03:07:00;;;;;;;0.5;0.5;;;;;;;17.1;100.0;101840;;;;
2022/06/11 03:08:00;;;;;;;0.5;0.5;;;;;;;17.1;100.0;101840;;;;
2022/06/11 03:09:00;;;;;;;0.5;0.5;;;;;;;17.1;100.0;101850;;;;
2022/06/11 03:10:00;;;;;;;0.5;0.5;;;;;;;17.1;100.0;101850;;;;
2022/06/11 03:11:00;;;;;;;0.5;0.5;;;;;;;17.1;100.0;101850;;;;
2022/06/11 03:12:01;;;;;;;0.5;0.5;;;;;;;17.1;100.0;101850;;;;
2022/06/11 03:13:00;;;;;;;0.5;0.5;;;;;;;17.0;100.0;101850;;;;
2022/06/11 03:14:00;;;;;;;0.5;0.5;;;;;;;17.0;100.0;101850;;;;
2022/06/11 03:15:00;;;;;;;0.5;0.5;;;;;;;17.0;100.0;101850;;;;
2022/06/11 03:16:00;;;;;;;0.5;0.5;;;;;;;17.0;100.0;101850;;;;
2022/06/11 03:17:00;;;;;;;0.5;0.5;;;;;;;17.0;100.0;101850;;;;
2022/06/11 03:18:00;;;;;;;0.5;0.5;;;;;;;17.0;100.0;101850;;;;
2022/06/11 03:19:00;;;;;;;0.5;0.5;;;;;;;17.0;100.0;101860;;;;
2022/06/11 03:20:00;;;;;;;0.5;0.5;;;;;;;17.0;100.0;101860;;;;
2022/06/11 03:21:00;;;;;;;0.5;0.5;;;;;;;17.0;100.0;101860;;;;
2022/06/11 03:22:00;;;;;;;0.5;0.5;;;;;;;17.0;100.0;101860;;;;
2022/06/11 03:23:00;;;;;;;0.5;0.5;;;;;;;17.0;100.0;101860;;;;
2022/06/11 03:24:00;;;;;;;0.3;0.3;;;;;;;17.0;100.0;101860;;;;
2022/06/11 03:25:00;;;;;;;0.3;0.3;;;;;;;17.0;100.0;101860;;;;
2022/06/11 03:26:00;;;;;;;0.3;0.3;;;;;;;17.0;100.0;101860;;;;
2022/06/11 03:27:00;;;;;;;0.3;0.3;;;;;;;17.0;100.0;101860;;;;
2022/06/11 03:28:08;;;;;;;0.3;0.3;;;;;;;17.0;100.0;101860;;;;
2022/06/11 03:29:00;;;;;;;0.3;0.3;;;;;;;17.0;100.0;101860;;;;
2022/06/11 03:30:00;;;;;;;0.3;0.3;;;;;;;17.0;100.0;101860;;;;
2022/06/11 03:31:03;;;;;;;0.3;0.3;;;;;;;16.9;100.0;101860;;;;
2022/06/11 03:32:00;;;;;;;0.3;0.3;;;;;;;16.9;100.0;101860;;;;
2022/06/11 03:33:00;;;;;;;0.3;0.3;;;;;;;16.8;100.0;101860;;;;
2022/06/11 03:34:00;;;;;;;0.3;0.3;;;;;;;16.8;100.0;101860;;;;
2022/06/11 03:35:00;;;;;;;0.3;0.3;;;;;;;16.8;100.0;101860;;;;
2022/06/11 03:36:00;;;;;;;0.3;0.3;;;;;;;16.8;100.0;101860;;;;
2022/06/11 03:37:00;;;;;;;0.3;0.3;;;;;;;16.8;100.0;101870;;;;
2022/06/11 03:38:00;;;;;;;0.3;0.3;;;;;;;16.8;100.0;101870;;;;
2022/06/11 03:39:00;;;;;;;0.3;0.3;;;;;;;16.9;100.0;101870;;;;
2022/06/11 03:40:00;;;;;;;0.3;0.3;;;;;;;16.9;100.0;101870;;;;
2022/06/11 03:41:00;;;;;;;0.3;0.3;;;;;;;16.8;100.0;101870;;;;
2022/06/11 03:42:00;;;;;;;0.3;0.3;;;;;;;16.8;100.0;101870;;;;
2022/06/11 03:43:00;;;;;;;0.3;0.3;;;;;;;16.8;100.0;101870;;;;
2022/06/11 03:44:00;;;;;;;0.4;0.4;;;;;;;16.8;100.0;101870;;;;
2022/06/11 03:45:00;;;;;;;0.4;0.4;;;;;;;16.9;100.0;101880;;;;
2022/06/11 03:46:00;;;;;;;0.4;0.4;;;;;;;16.9;100.0;101880;;;;
2022/06/11 03:47:00;;;;;;;0.4;0.4;;;;;;;16.8;100.0;101870;;;;
2022/06/11 03:48:01;;;;;;;0.4;0.4;;;;;;;16.8;100.0;101870;;;;
2022/06/11 03:49:00;;;;;;;0.4;0.4;;;;;;;16.8;100.0;101880;;;;
2022/06/11 03:50:00;;;;;;;0.4;0.4;;;;;;;16.8;100.0;101880;;;;
2022/06/11 03:51:00;;;;;;;0.4;0.4;;;;;;;17.0;100.0;101880;;;;
2022/06/11 03:52:00;;;;;;;0.4;0.4;;;;;;;17.0;100.0;101880;;;;
2022/06/11 03:53:00;;;;;;;0.4;0.4;;;;;;;16.9;100.0;101880;;;;
2022/06/11 03:54:00;;;;;;;0.4;0.4;;;;;;;16.9;100.0;101880;;;;
2022/06/11 03:55:00;;;;;;;0.4;0.4;;;;;;;16.9;100.0;101880;;;;
2022/06/11 03:56:00;;;;;;;0.4;0.4;;;;;;;16.9;100.0;101880;;;;
2022/06/11 03:57:00;;;;;;;0.4;0.4;;;;;;;16.8;100.0;101880;;;;
2022/06/11 03:58:00;;;;;;;0.4;0.4;;;;;;;16.8;100.0;101880;;;;
2022/06/11 03:59:00;;;;;;;0.4;0.4;;;;;;;17.0;100.0;101890;;;;
2022/06/11 04:00:02;;;;;;;0.4;0.4;;;;;;;17.0;100.0;101890;;;;
2022/06/11 04:02:00;;;;;;;0.4;0.4;;;;;;;17.0;100.0;101890;;;;
2022/06/11 04:03:00;;;;;;;0.4;0.4;;;;;;;17.0;100.0;101890;;;;
2022/06/11 04:04:03;;;;;;;0.3;0.3;;;;;;;17.0;100.0;101890;;;;
2022/06/11 04:05:00;;;;;;;0.3;0.3;;;;;;;17.1;100.0;101890;;;;
2022/06/11 04:06:01;;;;;;;0.3;0.3;;;;;;;17.1;100.0;101890;;;;
2022/06/11 04:07:01;;;;;;;0.3;0.3;;;;;;;17.2;100.0;101890;;;;
2022/06/11 04:08:00;;;;;;;0.3;0.3;;;;;;;17.2;100.0;101890;;;;
2022/06/11 04:09:00;;;;;;;0.3;0.3;;;;;;;17.2;100.0;101900;;;;
2022/06/11 04:10:00;;;;;;;0.3;0.3;;;;;;;17.2;100.0;101900;;;;
2022/06/11 04:11:01;;;;;;;0.3;0.3;;;;;;;17.1;100.0;101900;;;;
2022/06/11 04:12:00;;;;;;;0.3;0.3;;;;;;;17.1;100.0;101900;;;;
2022/06/11 04:13:00;;;;;;;0.3;0.3;;;;;;;17.1;100.0;101900;;;;
2022/06/11 04:14:00;;;;;;;0.3;0.3;;;;;;;17.1;100.0;101900;;;;
2022/06/11 04:15:00;;;;;;;0.3;0.3;;;;;;;17.1;100.0;101900;;;;
2022/06/11 04:16:00;;;;;;;0.3;0.3;;;;;;;17.1;100.0;101900;;;;
2022/06/11 04:17:03;;;;;;;0.3;0.3;;;;;;;17.3;100.0;101900;;;;
2022/06/11 04:18:03;;;;;;;0.3;0.3;;;;;;;17.3;100.0;101900;;;;
2022/06/11 04:19:02;;;;;;;0.3;0.3;;;;;;;17.3;100.0;101910;;;;
2022/06/11 04:20:00;;;;;;;0.3;0.3;;;;;;;17.3;100.0;101910;;;;
2022/06/11 04:21:01;;;;;;;0.3;0.3;;;;;;;17.2;100.0;101910;;;;
2022/06/11 04:22:00;;;;;;;0.3;0.3;;;;;;;17.2;100.0;101910;;;;
2022/06/11 04:23:00;;;;;;;0.3;0.3;;;;;;;17.2;100.0;101900;;;;
2022/06/11 04:24:01;;;;;;;0.2;0.2;;;;;;;17.2;100.0;101900;;;;
2022/06/11 04:25:00;;;;;;;0.2;0.2;;;;;;;17.2;100.0;101910;;;;
2022/06/11 04:26:01;;;;;;;0.2;0.2;;;;;;;17.2;100.0;101910;;;;
2022/06/11 04:27:02;;;;;;;0.2;0.2;;;;;;;17.2;100.0;101910;;;;
2022/06/11 04:28:00;;;;;;;0.2;0.2;;;;;;;17.2;100.0;101910;;;;
2022/06/11 04:29:00;;;;;;;0.2;0.2;;;;;;;17.2;100.0;101910;;;;
2022/06/11 04:30:00;;;;;;;0.2;0.2;;;;;;;17.2;100.0;101910;;;;
2022/06/11 04:31:01;;;;;;;0.2;0.2;;;;;;;17.3;100.0;101910;;;;
2022/06/11 04:32:02;;;;;;;0.2;0.2;;;;;;;17.3;100.0;101910;;;;
2022/06/11 04:33:00;;;;;;;0.2;0.2;;;;;;;17.3;100.0;101910;;;;
2022/06/11 04:34:00;;;;;;;0.2;0.2;;;;;;;17.3;100.0;101910;;;;
2022/06/11 04:35:01;;;;;;;0.2;0.2;;;;;;;17.2;100.0;101920;;;;
2022/06/11 04:36:00;;;;;;;0.2;0.2;;;;;;;17.2;100.0;101920;;;;
2022/06/11 04:37:00;;;;;;;0.2;0.2;;;;;;;17.2;100.0;101920;;;;
2022/06/11 04:38:00;;;;;;;0.2;0.2;;;;;;;17.2;100.0;101920;;;;
2022/06/11 04:39:00;;;;;;;0.2;0.2;;;;;;;17.3;100.0;101920;;;;
2022/06/11 04:40:01;;;;;;;0.2;0.2;;;;;;;17.3;100.0;101920;;;;
2022/06/11 04:41:00;;;;;;;0.2;0.2;;;;;;;17.3;100.0;101930;;;;
2022/06/11 04:42:00;;;;;;;0.2;0.2;;;;;;;17.3;100.0;101930;;;;
2022/06/11 04:43:00;;;;;;;0.2;0.2;;;;;;;17.2;100.0;101920;;;;
2022/06/11 04:44:00;;;;;;;0.6;0.6;;;;;;;17.2;100.0;101920;;;;
2022/06/11 04:45:00;;;;;;;0.6;0.6;;;;;;;17.2;100.0;101920;;;;
2022/06/11 04:46:00;;;;;;;0.6;0.6;;;;;;;17.2;100.0;101920;;;;
2022/06/11 04:47:00;;;;;;;0.6;0.6;;;;;;;17.1;100.0;101930;;;;
2022/06/11 04:48:00;;;;;;;0.6;0.6;;;;;;;17.1;100.0;101930;;;;
2022/06/11 04:49:00;;;;;;;0.6;0.6;;;;;;;17.2;100.0;101930;;;;
2022/06/11 04:50:01;;;;;;;0.6;0.6;;;;;;;17.2;100.0;101930;;;;
2022/06/11 04:51:00;;;;;;;0.6;0.6;;;;;;;17.3;100.0;101930;;;;
2022/06/11 04:52:00;;;;;;;0.6;0.6;;;;;;;17.3;100.0;101930;;;;
2022/06/11 04:53:00;;;;;;;0.6;0.6;;;;;;;17.3;100.0;101920;;;;
2022/06/11 04:54:00;;;;;;;0.6;0.6;;;;;;;17.3;100.0;101920;;;;
2022/06/11 04:55:00;;;;;;;0.6;0.6;;;;;;;17.3;100.0;101930;;;;
2022/06/11 04:56:00;;;;;;;0.6;0.6;;;;;;;17.3;100.0;101930;;;;
2022/06/11 04:57:00;;;;;;;0.6;0.6;;;;;;;17.3;100.0;101930;;;;
2022/06/11 04:58:00;;;;;;;0.6;0.6;;;;;;;17.3;100.0;101930;;;;
2022/06/11 04:59:06;;;;;;;0.6;0.6;;;;;;;17.3;100.0;101930;;;;
2022/06/11 05:00:00;;;;;;;0.6;0.6;;;;;;;17.3;100.0;101930;;;;
2022/06/11 05:01:00;;;;;;;0.6;0.6;;;;;;;17.3;100.0;101930;;;;
2022/06/11 05:02:01;;;;;;;0.6;0.6;;;;;;;17.3;100.0;101930;;;;
2022/06/11 05:03:00;;;;;;;0.6;0.6;;;;;;;17.2;100.0;101930;;;;
2022/06/11 05:04:00;;;;;;;0.3;0.3;;;;;;;17.2;100.0;101930;;;;
2022/06/11 05:05:01;;;;;;;0.3;0.3;;;;;;;17.3;100.0;101930;;;;
2022/06/11 05:06:00;;;;;;;0.3;0.3;;;;;;;17.3;100.0;101930;;;;
2022/06/11 05:07:00;;;;;;;0.3;0.3;;;;;;;17.4;100.0;101930;;;;
2022/06/11 05:08:01;;;;;;;0.3;0.3;;;;;;;17.4;100.0;101930;;;;
2022/06/11 05:09:00;;;;;;;0.3;0.3;;;;;;;17.3;100.0;101930;;;;
2022/06/11 05:10:00;;;;;;;0.3;0.3;;;;;;;17.3;100.0;101930;;;;
2022/06/11 05:11:00;;;;;;;0.3;0.3;;;;;;;17.4;100.0;101940;;;;
2022/06/11 05:12:00;;;;;;;0.3;0.3;;;;;;;17.4;100.0;101940;;;;
2022/06/11 05:13:01;;;;;;;0.3;0.3;;;;;;;17.3;100.0;101930;;;;
2022/06/11 05:14:00;;;;;;;0.3;0.3;;;;;;;17.3;100.0;101930;;;;
2022/06/11 05:15:00;;;;;;;0.3;0.3;;;;;;;17.3;100.0;101930;;;;
2022/06/11 05:16:00;;;;;;;0.3;0.3;;;;;;;17.3;100.0;101930;;;;
2022/06/11 05:17:01;;;;;;;0.3;0.3;;;;;;;17.4;100.0;101930;;;;
2022/06/11 05:18:00;;;;;;;0.3;0.3;;;;;;;17.4;100.0;101930;;;;
2022/06/11 05:19:00;;;;;;;0.3;0.3;;;;;;;17.3;100.0;101930;;;;
2022/06/11 05:20:00;;;;;;;0.3;0.3;;;;;;;17.3;100.0;101930;;;;
2022/06/11 05:21:00;;;;;;;0.3;0.3;;;;;;;17.2;100.0;101930;;;;
2022/06/11 05:22:00;;;;;;;0.3;0.3;;;;;;;17.2;100.0;101930;;;;
2022/06/11 05:23:00;;;;;;;0.6;0.6;;;;;;;17.3;100.0;101930;;;;
2022/06/11 05:24:00;;;;;;;0.6;0.6;;;;;;;17.3;100.0;101930;;;;
2022/06/11 05:25:00;;;;;;;0.6;0.6;;;;;;;17.4;100.0;101930;;;;
2022/06/11 05:26:00;;;;;;;0.6;0.6;;;;;;;17.4;100.0;101930;;;;
2022/06/11 05:27:03;;;;;;;0.6;0.6;;;;;;;17.5;100.0;101940;;;;
2022/06/11 05:28:02;;;;;;;0.6;0.6;;;;;;;17.5;100.0;101940;;;;
2022/06/11 05:29:00;;;;;;;0.6;0.6;;;;;;;17.5;100.0;101940;;;;
2022/06/11 05:30:03;;;;;;;0.6;0.6;;;;;;;17.5;100.0;101940;;;;
2022/06/11 05:31:00;;;;;;;0.6;0.6;;;;;;;17.5;100.0;101940;;;;
2022/06/11 05:32:00;;;;;;;0.6;0.6;;;;;;;17.5;100.0;101940;;;;
2022/06/11 05:33:00;;;;;;;0.6;0.6;;;;;;;17.6;100.0;101950;;;;
2022/06/11 05:34:00;;;;;;;0.6;0.6;;;;;;;17.6;100.0;101950;;;;
2022/06/11 05:35:01;;;;;;;0.6;0.6;;;;;;;17.5;100.0;101950;;;;
2022/06/11 05:36:00;;;;;;;0.6;0.6;;;;;;;17.5;100.0;101950;;;;
2022/06/11 05:37:00;;;;;;;0.6;0.6;;;;;;;17.5;100.0;101950;;;;
2022/06/11 05:38:01;;;;;;;0.6;0.6;;;;;;;17.5;100.0;101950;;;;
2022/06/11 05:39:00;;;;;;;0.6;0.6;;;;;;;17.6;100.0;101950;;;;
2022/06/11 05:40:00;;;;;;;0.6;0.6;;;;;;;17.6;100.0;101950;;;;
2022/06/11 05:41:00;;;;;;;0.6;0.6;;;;;;;17.6;100.0;101940;;;;
2022/06/11 05:42:00;;;;;;;0.6;0.6;;;;;;;17.6;100.0;101940;;;;
2022/06/11 05:43:00;;;;;;;0.2;0.2;;;;;;;17.9;100.0;101940;;;;
2022/06/11 05:44:01;;;;;;;0.2;0.2;;;;;;;17.9;100.0;101940;;;;
2022/06/11 05:45:00;;;;;;;0.2;0.2;;;;;;;17.7;100.0;101940;;;;
2022/06/11 05:46:04;;;;;;;0.2;0.2;;;;;;;17.7;100.0;101940;;;;
2022/06/11 05:47:00;;;;;;;0.2;0.2;;;;;;;17.6;100.0;101940;;;;
2022/06/11 05:48:00;;;;;;;0.2;0.2;;;;;;;17.6;100.0;101940;;;;
2022/06/11 05:49:03;;;;;;;0.2;0.2;;;;;;;17.7;100.0;101940;;;;
2022/06/11 05:50:00;;;;;;;0.2;0.2;;;;;;;17.7;100.0;101940;;;;
2022/06/11 05:51:00;;;;;;;0.2;0.2;;;;;;;17.7;100.0;101940;;;;
2022/06/11 05:52:01;;;;;;;0.2;0.2;;;;;;;17.7;100.0;101940;;;;
2022/06/11 05:53:01;;;;;;;0.2;0.2;;;;;;;17.8;100.0;101930;;;;
2022/06/11 05:54:01;;;;;;;0.2;0.2;;;;;;;17.8;100.0;101930;;;;
2022/06/11 05:55:00;;;;;;;0.2;0.2;;;;;;;17.7;100.0;101940;;;;
2022/06/11 05:56:01;;;;;;;0.2;0.2;;;;;;;17.7;100.0;101940;;;;
2022/06/11 05:57:02;;;;;;;0.2;0.2;;;;;;;17.8;100.0;101940;;;;
2022/06/11 05:58:01;;;;;;;0.2;0.2;;;;;;;17.8;100.0;101940;;;;
2022/06/11 05:59:02;;;;;;;0.2;0.2;;;;;;;17.8;100.0;101950;;;;
2022/06/11 06:00:03;;;;;;;0.2;0.2;;;;;;;17.8;100.0;101950;;;;
2022/06/11 06:01:01;;;;;;;0.2;0.2;;;;;;;17.9;100.0;101940;;;;
2022/06/11 06:02:00;;;;;;;0.2;0.2;;;;;;;17.9;100.0;101940;;;;
2022/06/11 06:03:00;;;;;;;0.2;0.2;;;;;;;18.3;100.0;101950;;;;
2022/06/11 06:04:00;;;;;;;0.2;0.2;;;;;;;18.3;100.0;101950;;;;
2022/06/11 06:05:00;;;;;;;0.2;0.2;;;;;;;18.3;100.0;101940;;;;
2022/06/11 06:06:00;;;;;;;0.2;0.2;;;;;;;18.3;100.0;101940;;;;
2022/06/11 06:07:00;;;;;;;0.2;0.2;;;;;;;18.3;100.0;101950;;;;
2022/06/11 06:08:00;;;;;;;0.2;0.2;;;;;;;18.3;100.0;101950;;;;
2022/06/11 06:09:00;;;;;;;0.2;0.2;;;;;;;18.4;100.0;101950;;;;
2022/06/11 06:10:00;;;;;;;0.2;0.2;;;;;;;18.4;100.0;101950;;;;
2022/06/11 06:11:00;;;;;;;0.2;0.2;;;;;;;18.4;100.0;101950;;;;
2022/06/11 06:12:00;;;;;;;0.2;0.2;;;;;;;18.4;100.0;101950;;;;
2022/06/11 06:13:45;;;;;;;0.2;0.2;;;;;;;18.3;100.0;101950;;;;
2022/06/11 06:14:00;;;;;;;0.2;0.2;;;;;;;18.3;100.0;101950;;;;
2022/06/11 06:15:01;;;;;;;0.2;0.2;;;;;;;18.4;100.0;101950;;;;
2022/06/11 06:16:00;;;;;;;0.2;0.2;;;;;;;18.4;100.0;101950;;;;
2022/06/11 06:17:10;;;;;;;0.2;0.2;;;;;;;18.3;100.0;101960;;;;
2022/06/11 06:18:00;;;;;;;0.2;0.2;;;;;;;18.3;100.0;101960;;;;
2022/06/11 06:19:01;;;;;;;0.2;0.2;;;;;;;18.3;100.0;101960;;;;
2022/06/11 06:20:00;;;;;;;0.2;0.2;;;;;;;18.3;100.0;101960;;;;
2022/06/11 06:21:00;;;;;;;0.2;0.2;;;;;;;18.1;100.0;101960;;;;
2022/06/11 06:22:06;;;;;;;0.2;0.2;;;;;;;18.1;100.0;101960;;;;
2022/06/11 06:23:00;;;;;;;2.4;0.4;;;;;;;18.2;100.0;101950;;;;